Time;durP1;ratioP1;P1;durP2;ratioP2;P2;SDS_P1;SDS_P2;PMS_P1;PMS_P2;Temp;Humidity;BMP_temperature;BMP_pressure;BME280_temperature;BME280_humidity;BME280_pressure;Samples;Min_cycle;Max_cycle;Signal;HPM_P1;HPM_P2
2021/08/24 00:00:41;;;;;;;6.68;2.92;;;;;;;;;;5011533;28;20029;-82
2021/08/24 00:03:06;;;;;;;5.55;3.00;;;;;;;;;;5011080;28;20022;-82
2021/08/24 00:05:33;;;;;;;8.23;3.60;;;;;;;;;;5011198;28;20573;-82
2021/08/24 00:07:59;;;;;;;4.97;3.03;;;;;;;;;;5011082;28;20064;-82
2021/08/24 00:10:27;;;;;;;6.18;2.97;;;;;;;;;;5012424;28;20018;-82
2021/08/24 00:12:52;;;;;;;6.15;3.05;;;;;;;;;;5011379;28;20100;-82
2021/08/24 00:15:17;;;;;;;5.28;2.97;;;;;;;;;;5016573;28;20521;-82
2021/08/24 00:17:43;;;;;;;6.95;2.85;;;;;;;;;;5018316;28;20010;-82
2021/08/24 00:20:08;;;;;;;4.43;2.60;;;;;;;;;;5034901;28;20059;-81
2021/08/24 00:22:34;;;;;;;4.43;2.83;;;;;;;;;;5034700;28;20124;-82
2021/08/24 00:25:00;;;;;;;5.80;3.28;;;;;;;;;;5034683;28;20472;-82
2021/08/24 00:27:25;;;;;;;5.43;2.75;;;;;;;;;;5034456;28;20025;-82
2021/08/24 00:29:50;;;;;;;6.97;3.13;;;;;;;;;;5023018;28;20036;-82
2021/08/24 00:32:15;;;;;;;6.10;3.58;;;;;;;;;;5035841;28;20024;-82
2021/08/24 00:34:40;;;;;;;4.35;3.22;;;;;;;;;;5034523;28;20461;-82
2021/08/24 00:37:06;;;;;;;4.40;2.78;;;;;;;;;;5035179;28;20013;-81
2021/08/24 00:39:31;;;;;;;9.60;3.25;;;;;;;;;;5034372;28;20071;-81
2021/08/24 00:41:56;;;;;;;7.38;3.80;;;;;;;;;;5022962;28;20026;-82
2021/08/24 00:44:21;;;;;;;7.70;3.50;;;;;;;;;;5034449;28;20028;-82
2021/08/24 00:46:48;;;;;;;16.60;3.45;;;;;;;;;;5034208;28;20387;-82
2021/08/24 00:49:22;;;;;;;4.63;2.72;;;;;;;;;;5034302;28;20021;-82
2021/08/24 00:51:51;;;;;;;6.38;3.17;;;;;;;;;;5034051;28;20036;-82
2021/08/24 00:54:20;;;;;;;7.43;3.70;;;;;;;;;;5034138;28;20113;-82
2021/08/24 00:56:47;;;;;;;7.50;3.22;;;;;;;;;;5034883;28;20017;-82
2021/08/24 00:59:13;;;;;;;6.10;3.25;;;;;;;;;;5025204;28;20021;-82
2021/08/24 01:01:38;;;;;;;5.57;3.10;;;;;;;;;;5034039;28;20087;-81
2021/08/24 01:04:03;;;;;;;7.93;3.40;;;;;;;;;;5026552;28;20441;-82
2021/08/24 01:06:55;;;;;;;4.53;2.83;;;;;;;;;;5025496;28;20431;-82
2021/08/24 01:09:20;;;;;;;8.57;3.47;;;;;;;;;;5050204;28;20045;-82
2021/08/24 01:11:55;;;;;;;5.88;3.22;;;;;;;;;;5033750;28;20032;-81
2021/08/24 01:14:20;;;;;;;7.40;3.30;;;;;;;;;;5033940;28;20070;-82
2021/08/24 01:16:54;;;;;;;6.57;3.38;;;;;;;;;;5033665;28;20025;-82
2021/08/24 01:19:22;;;;;;;11.20;3.50;;;;;;;;;;5033485;28;20492;-82
2021/08/24 01:21:50;;;;;;;6.88;3.30;;;;;;;;;;5033788;28;20028;-82
2021/08/24 01:24:22;;;;;;;8.95;2.83;;;;;;;;;;5031679;28;20029;-82
2021/08/24 01:27:13;;;;;;;7.22;3.35;;;;;;;;;;5022517;28;20029;-82
2021/08/24 01:29:41;;;;;;;6.57;3.15;;;;;;;;;;5013493;28;20029;-82
2021/08/24 01:32:25;;;;;;;5.03;2.85;;;;;;;;;;5025620;28;20020;-82
2021/08/24 01:35:12;;;;;;;5.13;2.90;;;;;;;;;;5031909;28;20477;-82
2021/08/24 01:37:56;;;;;;;4.93;3.13;;;;;;;;;;5018322;28;20030;-82
2021/08/24 01:40:26;;;;;;;3.95;2.65;;;;;;;;;;5046117;28;20018;-82
2021/08/24 01:42:51;;;;;;;8.77;3.30;;;;;;;;;;5014518;28;20026;-82
2021/08/24 01:45:30;;;;;;;5.45;3.10;;;;;;;;;;5013508;28;20026;-82
2021/08/24 01:48:00;;;;;;;8.85;3.72;;;;;;;;;;5013380;28;20355;-82
2021/08/24 01:50:25;;;;;;;4.22;2.72;;;;;;;;;;5013087;28;20029;-82
2021/08/24 01:52:54;;;;;;;6.75;3.28;;;;;;;;;;5046480;28;20024;-82
2021/08/24 01:55:32;;;;;;;6.70;3.10;;;;;;;;;;5013140;28;20018;-82
2021/08/24 01:57:59;;;;;;;7.47;3.15;;;;;;;;;;5014593;28;20014;-82
2021/08/24 02:00:24;;;;;;;7.78;3.40;;;;;;;;;;5014111;28;20104;-82
2021/08/24 02:02:51;;;;;;;5.43;3.22;;;;;;;;;;5014782;28;20108;-81
2021/08/24 02:05:16;;;;;;;6.55;3.20;;;;;;;;;;5012870;28;20022;-82
2021/08/24 02:07:42;;;;;;;6.72;3.00;;;;;;;;;;5045968;28;20025;-81
2021/08/24 02:10:11;;;;;;;6.68;3.47;;;;;;;;;;5012708;28;20030;-81
2021/08/24 02:12:38;;;;;;;6.15;3.03;;;;;;;;;;5012773;28;20022;-81
2021/08/24 02:15:05;;;;;;;6.10;3.30;;;;;;;;;;5012029;28;20738;-82
2021/08/24 02:17:31;;;;;;;5.38;3.10;;;;;;;;;;5014528;28;20390;-81
2021/08/24 02:19:59;;;;;;;7.30;3.15;;;;;;;;;;5012580;28;20030;-82
2021/08/24 02:22:30;;;;;;;5.55;3.20;;;;;;;;;;5045946;28;20022;-82
2021/08/24 02:25:01;;;;;;;7.22;3.55;;;;;;;;;;5014126;28;20026;-81
2021/08/24 02:27:29;;;;;;;4.47;2.90;;;;;;;;;;5012835;28;20033;-82
2021/08/24 02:29:54;;;;;;;9.98;3.70;;;;;;;;;;5014119;28;20048;-82
2021/08/24 02:32:28;;;;;;;5.47;2.58;;;;;;;;;;5012270;28;20068;-82
2021/08/24 02:34:55;;;;;;;5.93;3.40;;;;;;;;;;5013945;28;20029;-82
2021/08/24 02:37:32;;;;;;;5.30;3.40;;;;;;;;;;5012528;28;20362;-81
2021/08/24 02:40:00;;;;;;;6.20;3.08;;;;;;;;;;5045130;28;20501;-82
2021/08/24 02:42:28;;;;;;;6.35;3.28;;;;;;;;;;5045123;28;20022;-82
2021/08/24 02:44:59;;;;;;;7.57;3.35;;;;;;;;;;5013584;28;20026;-82
2021/08/24 02:47:25;;;;;;;5.70;3.30;;;;;;;;;;5012049;28;20113;-81
2021/08/24 02:49:51;;;;;;;5.75;3.00;;;;;;;;;;5013449;28;20042;-81
2021/08/24 02:52:17;;;;;;;9.20;2.92;;;;;;;;;;5013600;28;20026;-81
2021/08/24 02:54:45;;;;;;;10.52;3.05;;;;;;;;;;5012409;28;20025;-82
2021/08/24 02:57:10;;;;;;;13.40;2.85;;;;;;;;;;5012304;28;20454;-81
2021/08/24 02:59:36;;;;;;;6.25;3.00;;;;;;;;;;5012217;28;20104;-82
2021/08/24 03:02:01;;;;;;;6.90;3.53;;;;;;;;;;5012267;28;20022;-81
2021/08/24 03:04:26;;;;;;;13.23;3.40;;;;;;;;;;5012096;28;20034;-81
2021/08/24 03:06:54;;;;;;;5.03;2.90;;;;;;;;;;5012363;28;20084;-82
2021/08/24 03:09:21;;;;;;;8.98;3.45;;;;;;;;;;5013364;28;20021;-81
2021/08/24 03:12:04;;;;;;;11.30;3.30;;;;;;;;;;5031228;28;20470;-81
2021/08/24 03:14:37;;;;;;;5.45;3.22;;;;;;;;;;5017183;28;20057;-82
2021/08/24 03:17:02;;;;;;;;;;;;;;;;;;5012436;28;20065;-81
2021/08/24 03:19:29;;;;;;;6.50;3.00;;;;;;;;;;5045255;28;19906;-81
2021/08/24 03:21:55;;;;;;;4.65;2.63;;;;;;;;;;5011802;28;20264;-81
2021/08/24 03:24:21;;;;;;;6.45;3.13;;;;;;;;;;5011721;28;20041;-81
2021/08/24 03:26:47;;;;;;;5.43;2.97;;;;;;;;;;5013180;28;20476;-81
2021/08/24 03:29:16;;;;;;;5.85;3.28;;;;;;;;;;5012953;28;20081;-82
2021/08/24 03:31:43;;;;;;;6.60;3.30;;;;;;;;;;5011906;28;20029;-82
2021/08/24 03:34:08;;;;;;;7.10;3.10;;;;;;;;;;5011672;28;20064;-82
2021/08/24 03:36:34;;;;;;;7.72;3.30;;;;;;;;;;5011962;28;20022;-82
2021/08/24 03:38:59;;;;;;;6.03;3.17;;;;;;;;;;5012661;28;20025;-81
2021/08/24 03:41:25;;;;;;;10.18;3.70;;;;;;;;;;5011712;28;20144;-81
2021/08/24 03:43:50;;;;;;;7.28;3.80;;;;;;;;;;5012746;28;20049;-81
2021/08/24 03:46:16;;;;;;;5.70;3.25;;;;;;;;;;5011884;28;20037;-82
2021/08/24 03:48:41;;;;;;;6.35;3.15;;;;;;;;;;5011625;28;20022;-81
2021/08/24 03:51:06;;;;;;;5.43;3.15;;;;;;;;;;5012201;28;20018;-81
2021/08/24 03:53:35;;;;;;;7.70;3.75;;;;;;;;;;5015216;28;20104;-82
2021/08/24 03:56:00;;;;;;;5.60;3.30;;;;;;;;;;5015430;28;20022;-81
2021/08/24 03:58:25;;;;;;;7.13;3.95;;;;;;;;;;5015339;28;20037;-82
2021/08/24 04:00:51;;;;;;;6.15;3.42;;;;;;;;;;5015274;28;20053;-81
2021/08/24 04:03:17;;;;;;;9.52;3.70;;;;;;;;;;5015404;28;20022;-81
2021/08/24 04:05:42;;;;;;;6.43;3.35;;;;;;;;;;5015076;28;20026;-81
2021/08/24 04:08:07;;;;;;;15.35;3.55;;;;;;;;;;5015500;28;20061;-82
2021/08/24 04:10:33;;;;;;;8.88;3.58;;;;;;;;;;5016347;28;20025;-82
2021/08/24 04:12:58;;;;;;;7.43;3.65;;;;;;;;;;5015179;28;20014;-81
2021/08/24 04:15:23;;;;;;;4.80;2.85;;;;;;;;;;5016569;28;20048;-82
2021/08/24 04:17:48;;;;;;;5.85;3.25;;;;;;;;;;5014656;28;20470;-81
2021/08/24 04:20:14;;;;;;;4.63;2.78;;;;;;;;;;5015170;28;20021;-82
2021/08/24 04:22:40;;;;;;;7.28;3.17;;;;;;;;;;5014880;28;20053;-82
2021/08/24 04:25:06;;;;;;;8.48;3.40;;;;;;;;;;5014791;28;20057;-82
2021/08/24 04:27:31;;;;;;;12.20;3.38;;;;;;;;;;5016498;28;20026;-82
2021/08/24 04:29:56;;;;;;;7.72;3.65;;;;;;;;;;5014739;28;20029;-82
2021/08/24 04:32:23;;;;;;;9.48;3.25;;;;;;;;;;5014751;28;20022;-81
2021/08/24 04:34:48;;;;;;;5.43;3.50;;;;;;;;;;5021577;28;20366;-81
2021/08/24 04:37:13;;;;;;;8.20;3.65;;;;;;;;;;5015459;28;20025;-82
2021/08/24 04:39:39;;;;;;;12.10;3.55;;;;;;;;;;5014840;28;20022;-82
2021/08/24 04:42:04;;;;;;;6.03;3.72;;;;;;;;;;5014622;28;20447;-82
2021/08/24 04:44:29;;;;;;;9.13;3.65;;;;;;;;;;5014779;28;20025;-81
2021/08/24 04:46:54;;;;;;;8.82;4.25;;;;;;;;;;5014096;28;20508;-81
2021/08/24 04:49:21;;;;;;;8.85;4.20;;;;;;;;;;5014755;28;20064;-81
2021/08/24 04:51:46;;;;;;;6.07;3.72;;;;;;;;;;5015758;28;20022;-82
2021/08/24 04:54:11;;;;;;;7.43;3.53;;;;;;;;;;5014404;28;20022;-82
2021/08/24 04:56:36;;;;;;;6.78;3.33;;;;;;;;;;5014636;28;20018;-82
2021/08/24 04:59:01;;;;;;;7.95;3.78;;;;;;;;;;5015549;28;20037;-81
2021/08/24 05:01:27;;;;;;;7.18;4.03;;;;;;;;;;5014777;28;20021;-82
2021/08/24 05:03:52;;;;;;;7.25;3.67;;;;;;;;;;5014007;28;20113;-81
2021/08/24 05:06:18;;;;;;;9.55;4.00;;;;;;;;;;5014575;28;20025;-81
2021/08/24 05:08:43;;;;;;;8.43;3.70;;;;;;;;;;5014272;28;20493;-81
2021/08/24 05:11:08;;;;;;;9.05;3.55;;;;;;;;;;5014072;28;20455;-81
2021/08/24 05:13:33;;;;;;;8.05;3.85;;;;;;;;;;5015580;28;20018;-81
2021/08/24 05:15:58;;;;;;;4.30;3.15;;;;;;;;;;5014102;28;20018;-81
2021/08/24 05:18:24;;;;;;;8.00;3.80;;;;;;;;;;5014152;28;20060;-81
2021/08/24 05:20:49;;;;;;;6.85;3.80;;;;;;;;;;5014022;28;20022;-82
2021/08/24 05:23:14;;;;;;;7.25;3.80;;;;;;;;;;5013663;28;20026;-82
2021/08/24 05:25:39;;;;;;;7.38;4.07;;;;;;;;;;5014204;28;20496;-82
2021/08/24 05:28:05;;;;;;;7.10;3.97;;;;;;;;;;5014942;28;20026;-82
2021/08/24 05:30:30;;;;;;;9.38;3.53;;;;;;;;;;5013680;28;20091;-82
2021/08/24 05:32:56;;;;;;;8.55;4.05;;;;;;;;;;5013881;28;20018;-82
2021/08/24 05:35:22;;;;;;;8.85;4.40;;;;;;;;;;5013627;28;20005;-82
2021/08/24 05:37:48;;;;;;;8.10;4.25;;;;;;;;;;5015813;28;20029;-82
2021/08/24 05:40:13;;;;;;;6.80;4.32;;;;;;;;;;5013426;28;20022;-82
2021/08/24 05:42:39;;;;;;;8.48;4.20;;;;;;;;;;5013669;28;20109;-81
2021/08/24 05:45:05;;;;;;;8.70;4.00;;;;;;;;;;5014759;28;20058;-82
2021/08/24 05:47:30;;;;;;;5.93;3.95;;;;;;;;;;5013144;28;20627;-82
2021/08/24 05:49:57;;;;;;;5.55;3.85;;;;;;;;;;5046695;28;20030;-82
2021/08/24 05:52:22;;;;;;;11.70;2.88;;;;;;;;;;5015007;28;20018;-82
2021/08/24 05:54:49;;;;;;;7.60;3.92;;;;;;;;;;5013142;28;20032;-82
2021/08/24 05:57:16;;;;;;;8.57;4.45;;;;;;;;;;5013273;28;20022;-82
2021/08/24 05:59:41;;;;;;;7.68;3.55;;;;;;;;;;5013991;28;20524;-82
2021/08/24 06:02:06;;;;;;;7.20;3.92;;;;;;;;;;5015726;28;20025;-81
2021/08/24 06:04:32;;;;;;;5.93;3.70;;;;;;;;;;5013204;28;20022;-82
2021/08/24 06:06:57;;;;;;;11.45;4.40;;;;;;;;;;5013094;28;20033;-82
2021/08/24 06:09:22;;;;;;;6.05;3.90;;;;;;;;;;5014191;28;20025;-82
2021/08/24 06:11:50;;;;;;;11.05;3.80;;;;;;;;;;5014569;28;20021;-82
2021/08/24 06:14:16;;;;;;;9.02;3.75;;;;;;;;;;5017256;28;20384;-82
2021/08/24 06:16:41;;;;;;;9.25;3.53;;;;;;;;;;5050952;28;20018;-82
2021/08/24 06:19:07;;;;;;;7.03;3.83;;;;;;;;;;5013510;28;20018;-82
2021/08/24 06:21:32;;;;;;;7.20;4.13;;;;;;;;;;5015206;28;20017;-82
2021/08/24 06:23:57;;;;;;;6.70;3.78;;;;;;;;;;5023465;28;20021;-82
2021/08/24 06:26:23;;;;;;;11.07;3.55;;;;;;;;;;5020944;28;20017;-82
2021/08/24 06:28:48;;;;;;;7.72;4.63;;;;;;;;;;5016295;28;20025;-82
2021/08/24 06:31:16;;;;;;;8.77;4.15;;;;;;;;;;5013146;28;20103;-81
2021/08/24 06:33:41;;;;;;;11.68;3.95;;;;;;;;;;5032073;28;20141;-82
2021/08/24 06:36:06;;;;;;;6.70;4.18;;;;;;;;;;5017558;28;20025;-82
2021/08/24 06:38:32;;;;;;;7.05;4.00;;;;;;;;;;5044759;28;20029;-82
2021/08/24 06:40:58;;;;;;;6.38;3.88;;;;;;;;;;5015004;28;20026;-82
2021/08/24 06:43:23;;;;;;;8.00;4.32;;;;;;;;;;5011885;28;20476;-82
2021/08/24 06:45:49;;;;;;;8.07;4.60;;;;;;;;;;5012180;28;20034;-81
2021/08/24 06:48:14;;;;;;;9.93;4.93;;;;;;;;;;5018365;28;20805;-81
2021/08/24 06:50:40;;;;;;;13.02;5.45;;;;;;;;;;5012685;28;20026;-82
2021/08/24 06:53:05;;;;;;;8.40;4.47;;;;;;;;;;5013186;28;20474;-81
2021/08/24 06:55:31;;;;;;;10.15;4.03;;;;;;;;;;5015134;28;20013;-81
2021/08/24 06:58:00;;;;;;;7.13;4.43;;;;;;;;;;5013117;28;20347;-82
2021/08/24 07:00:25;;;;;;;9.70;4.93;;;;;;;;;;5011604;28;20037;-81
2021/08/24 07:02:53;;;;;;;9.00;3.92;;;;;;;;;;5015782;28;20096;-81
2021/08/24 07:05:22;;;;;;;10.25;4.78;;;;;;;;;;5006668;28;20022;-81
2021/08/24 07:07:47;;;;;;;11.23;4.07;;;;;;;;;;5016620;28;20091;-82
2021/08/24 07:10:13;;;;;;;6.32;3.80;;;;;;;;;;5016186;28;20053;-82
2021/08/24 07:12:39;;;;;;;9.35;4.38;;;;;;;;;;5013983;28;20116;-82
2021/08/24 07:15:05;;;;;;;10.65;4.68;;;;;;;;;;5011653;28;20018;-81
2021/08/24 07:17:30;;;;;;;8.75;4.07;;;;;;;;;;5012388;28;20018;-81
2021/08/24 07:19:55;;;;;;;8.65;3.92;;;;;;;;;;5011664;28;20016;-82
2021/08/24 07:22:20;;;;;;;8.82;4.50;;;;;;;;;;5012740;28;20101;-81
2021/08/24 07:24:46;;;;;;;8.00;4.40;;;;;;;;;;5011443;28;20025;-81
2021/08/24 07:27:11;;;;;;;7.65;4.35;;;;;;;;;;5011592;28;20390;-82
2021/08/24 07:29:36;;;;;;;8.43;4.43;;;;;;;;;;5012218;28;20017;-81
2021/08/24 07:32:02;;;;;;;7.22;3.75;;;;;;;;;;5006955;28;20045;-82
2021/08/24 07:34:27;;;;;;;8.43;4.03;;;;;;;;;;5012210;28;20014;-82
2021/08/24 07:36:53;;;;;;;14.25;4.57;;;;;;;;;;5011096;28;20531;-82
2021/08/24 07:39:18;;;;;;;7.65;4.18;;;;;;;;;;5011405;28;20488;-81
2021/08/24 07:41:43;;;;;;;10.10;4.13;;;;;;;;;;5016732;28;20046;-82
2021/08/24 07:44:08;;;;;;;7.25;3.60;;;;;;;;;;5010190;28;20022;-82
2021/08/24 07:46:33;;;;;;;7.90;4.30;;;;;;;;;;5010447;28;20045;-82
2021/08/24 07:48:59;;;;;;;11.38;3.45;;;;;;;;;;5009472;28;20466;-82
2021/08/24 07:51:24;;;;;;;8.90;4.18;;;;;;;;;;5010180;28;20032;-82
2021/08/24 07:53:50;;;;;;;14.88;4.40;;;;;;;;;;5011424;28;20022;-81
2021/08/24 07:56:15;;;;;;;7.53;4.05;;;;;;;;;;5010788;28;20026;-82
2021/08/24 07:58:40;;;;;;;10.48;3.97;;;;;;;;;;5011696;28;20030;-81
2021/08/24 08:01:06;;;;;;;6.90;3.92;;;;;;;;;;5011457;28;20018;-82
2021/08/24 08:03:31;;;;;;;9.23;4.45;;;;;;;;;;5010156;28;20116;-82
2021/08/24 08:05:56;;;;;;;6.35;3.90;;;;;;;;;;5010459;28;20096;-82
2021/08/24 08:08:22;;;;;;;9.13;3.97;;;;;;;;;;5010476;28;20108;-82
2021/08/24 08:10:47;;;;;;;8.57;4.57;;;;;;;;;;5010995;28;20026;-82
2021/08/24 08:13:12;;;;;;;6.97;3.97;;;;;;;;;;5011105;28;20026;-82
2021/08/24 08:15:38;;;;;;;7.05;3.55;;;;;;;;;;5012753;28;20077;-82
2021/08/24 08:18:07;;;;;;;8.40;4.20;;;;;;;;;;5014375;28;20026;-82
2021/08/24 08:20:32;;;;;;;7.63;4.28;;;;;;;;;;5012315;28;20034;-82
2021/08/24 08:22:58;;;;;;;6.30;3.33;;;;;;;;;;5008362;28;20129;-81
2021/08/24 08:25:23;;;;;;;7.93;3.58;;;;;;;;;;5010377;28;20030;-81
2021/08/24 08:27:48;;;;;;;5.93;3.63;;;;;;;;;;5001294;28;20052;-82
2021/08/24 08:30:14;;;;;;;8.18;3.13;;;;;;;;;;5004577;28;20045;-82
2021/08/24 08:32:39;;;;;;;9.18;3.33;;;;;;;;;;5012422;28;20037;-82
2021/08/24 08:35:05;;;;;;;9.77;3.60;;;;;;;;;;5015554;28;20481;-82
2021/08/24 08:37:30;;;;;;;10.82;4.15;;;;;;;;;;5012126;28;20022;-82
2021/08/24 08:39:56;;;;;;;8.05;3.45;;;;;;;;;;5015391;28;20021;-82
2021/08/24 08:42:25;;;;;;;10.00;3.67;;;;;;;;;;5014184;28;20417;-83
2021/08/24 08:44:59;;;;;;;7.13;3.75;;;;;;;;;;5015569;28;20010;-81
2021/08/24 08:47:25;;;;;;;7.55;3.22;;;;;;;;;;5012460;28;20029;-82
2021/08/24 08:50:10;;;;;;;6.93;3.88;;;;;;;;;;5047020;28;20381;-82
2021/08/24 08:52:50;;;;;;;10.40;4.53;;;;;;;;;;5048267;28;20036;-82
2021/08/24 08:55:45;;;;;;;5.97;3.20;;;;;;;;;;5017061;28;20113;-82
2021/08/24 08:58:32;;;;;;;14.70;3.75;;;;;;;;;;4964572;28;20031;-82
2021/08/24 09:01:01;;;;;;;7.63;2.95;;;;;;;;;;5005278;28;20042;-82
2021/08/24 09:03:45;;;;;;;8.07;3.63;;;;;;;;;;5027531;28;20025;-82
2021/08/24 09:06:11;;;;;;;7.93;2.95;;;;;;;;;;5044636;28;20484;-83
2021/08/24 09:08:38;;;;;;;9.77;3.40;;;;;;;;;;5016672;28;20154;-82
2021/08/24 09:11:06;;;;;;;4.90;2.88;;;;;;;;;;5018274;28;20026;-82
2021/08/24 09:13:31;;;;;;;7.70;3.00;;;;;;;;;;5011508;28;20010;-82
2021/08/24 09:15:58;;;;;;;8.32;2.72;;;;;;;;;;5017122;28;20022;-82
2021/08/24 09:18:35;;;;;;;8.70;3.15;;;;;;;;;;5015170;28;20026;-82
2021/08/24 09:21:01;;;;;;;9.30;3.00;;;;;;;;;;5031065;28;20018;-83
2021/08/24 09:23:27;;;;;;;7.13;3.10;;;;;;;;;;5006103;28;20477;-83
2021/08/24 09:26:02;;;;;;;5.35;2.00;;;;;;;;;;5017851;28;20025;-82
2021/08/24 09:28:28;;;;;;;9.55;2.53;;;;;;;;;;5042115;28;20028;-85
2021/08/24 09:30:54;;;;;;;7.25;2.60;;;;;;;;;;5011575;28;20032;-81
2021/08/24 09:33:19;;;;;;;7.40;2.50;;;;;;;;;;5012623;28;20365;-82
2021/08/24 09:35:48;;;;;;;5.70;2.60;;;;;;;;;;5016556;28;20137;-81
2021/08/24 09:38:20;;;;;;;4.57;2.28;;;;;;;;;;5012245;28;20030;-81
2021/08/24 09:40:50;;;;;;;5.63;3.00;;;;;;;;;;5044270;28;20116;-82
2021/08/24 09:43:21;;;;;;;4.45;2.40;;;;;;;;;;5046178;28;20106;-80
2021/08/24 09:45:53;;;;;;;6.13;2.85;;;;;;;;;;5015489;28;20804;-81
2021/08/24 09:48:18;;;;;;;5.30;2.42;;;;;;;;;;5011470;28;20525;-82
2021/08/24 09:50:44;;;;;;;6.10;2.45;;;;;;;;;;5012185;28;20109;-82
2021/08/24 09:53:22;;;;;;;6.65;2.45;;;;;;;;;;5013902;28;20106;-83
2021/08/24 09:55:48;;;;;;;5.65;2.90;;;;;;;;;;5012438;28;20022;-84
2021/08/24 09:58:24;;;;;;;4.80;3.08;;;;;;;;;;5013328;28;20041;-83
2021/08/24 10:00:52;;;;;;;7.47;2.40;;;;;;;;;;5012392;28;20370;-83
2021/08/24 10:03:25;;;;;;;5.07;2.05;;;;;;;;;;5014300;28;20474;-83
2021/08/24 10:05:59;;;;;;;5.55;2.47;;;;;;;;;;5016069;28;20026;-84
2021/08/24 10:08:30;;;;;;;5.75;1.73;;;;;;;;;;5011461;28;20485;-84
2021/08/24 10:11:18;;;;;;;6.47;2.30;;;;;;;;;;5017541;28;20026;-83
2021/08/24 10:13:44;;;;;;;5.70;2.42;;;;;;;;;;5011594;28;20033;-83
2021/08/24 10:16:12;;;;;;;4.90;2.25;;;;;;;;;;5017809;28;20465;-83
2021/08/24 10:18:38;;;;;;;6.40;2.20;;;;;;;;;;5017708;28;20029;-83
2021/08/24 10:21:05;;;;;;;5.45;2.10;;;;;;;;;;5016801;28;20032;-83
2021/08/24 10:23:37;;;;;;;4.53;2.30;;;;;;;;;;5011602;28;20029;-84
2021/08/24 10:26:21;;;;;;;4.13;1.90;;;;;;;;;;5014978;28;20170;-84
2021/08/24 10:28:47;;;;;;;8.30;2.40;;;;;;;;;;5045118;28;20040;-83
2021/08/24 10:31:26;;;;;;;6.82;2.40;;;;;;;;;;5011968;28;20465;-84
2021/08/24 10:34:12;;;;;;;5.32;2.00;;;;;;;;;;5007982;28;20026;-83
2021/08/24 10:36:46;;;;;;;5.47;1.65;;;;;;;;;;5010254;28;20034;-84
2021/08/24 10:39:25;;;;;;;4.63;1.88;;;;;;;;;;5044545;28;20022;-83
2021/08/24 10:42:05;;;;;;;5.13;1.75;;;;;;;;;;5011035;28;20033;-83
2021/08/24 10:44:41;;;;;;;4.18;2.05;;;;;;;;;;5011501;28;20071;-83
2021/08/24 10:47:19;;;;;;;2.35;1.55;;;;;;;;;;5009988;28;20025;-83
2021/08/24 10:49:45;;;;;;;3.63;1.58;;;;;;;;;;5013974;28;20374;-83
2021/08/24 10:52:14;;;;;;;3.58;1.80;;;;;;;;;;5010547;28;20041;-83
2021/08/24 10:54:48;;;;;;;3.88;1.90;;;;;;;;;;5040294;28;20117;-83
2021/08/24 10:57:13;;;;;;;7.50;1.60;;;;;;;;;;5015037;28;20030;-83
2021/08/24 11:00:00;;;;;;;6.85;1.77;;;;;;;;;;5012657;28;20022;-83
2021/08/24 11:03:05;;;;;;;3.83;1.60;;;;;;;;;;5042535;28;20033;-83
2021/08/24 11:05:33;;;;;;;3.13;1.65;;;;;;;;;;4962403;28;20027;-84
2021/08/24 11:08:09;;;;;;;3.47;1.65;;;;;;;;;;4951238;28;20383;-83
2021/08/24 11:10:51;;;;;;;3.47;1.63;;;;;;;;;;4974004;28;20034;-83
2021/08/24 11:13:16;;;;;;;4.50;2.20;;;;;;;;;;5045102;28;20022;-83
2021/08/24 11:15:41;;;;;;;6.75;1.80;;;;;;;;;;5011500;28;20316;-83
2021/08/24 11:18:34;;;;;;;3.58;1.70;;;;;;;;;;5046283;28;20045;-84
2021/08/24 11:21:05;;;;;;;5.30;1.70;;;;;;;;;;5025847;28;20024;-83
2021/08/24 11:23:36;;;;;;;2.35;1.45;;;;;;;;;;5007823;28;20109;-83
2021/08/24 11:26:01;;;;;;;3.72;1.90;;;;;;;;;;5040173;28;20022;-83
2021/08/24 11:28:45;;;;;;;7.72;2.20;;;;;;;;;;5009692;28;20037;-84
2021/08/24 11:31:15;;;;;;;2.58;1.35;;;;;;;;;;5027200;28;20540;-84
2021/08/24 11:33:44;;;;;;;2.90;1.42;;;;;;;;;;5011980;28;20040;-84
2021/08/24 11:36:21;;;;;;;7.47;2.00;;;;;;;;;;5010807;28;20010;-84
2021/08/24 11:38:52;;;;;;;4.25;2.00;;;;;;;;;;5007944;28;20026;-84
2021/08/24 11:41:20;;;;;;;3.35;1.60;;;;;;;;;;5015356;28;20536;-83
2021/08/24 11:43:52;;;;;;;3.42;1.60;;;;;;;;;;5013316;28;20101;-84
2021/08/24 11:46:23;;;;;;;3.03;1.50;;;;;;;;;;5012445;28;20049;-84
2021/08/24 11:48:51;;;;;;;5.93;1.70;;;;;;;;;;5010930;28;20018;-84
2021/08/24 11:51:24;;;;;;;4.88;1.48;;;;;;;;;;5010711;28;20049;-84
2021/08/24 11:54:02;;;;;;;5.32;1.35;;;;;;;;;;5010903;28;20044;-84
2021/08/24 11:56:45;;;;;;;3.15;1.48;;;;;;;;;;5040795;28;20033;-84
2021/08/24 11:59:30;;;;;;;2.67;1.67;;;;;;;;;;5014641;28;20022;-85
2021/08/24 12:01:55;;;;;;;3.25;1.52;;;;;;;;;;5013697;28;20023;-84
2021/08/24 12:04:22;;;;;;;3.35;1.60;;;;;;;;;;5006854;28;20100;-84
2021/08/24 12:06:50;;;;;;;2.95;1.55;;;;;;;;;;5006145;28;20045;-86
2021/08/24 12:09:18;;;;;;;4.30;1.63;;;;;;;;;;5016640;28;20040;-84
2021/08/24 12:11:43;;;;;;;1.77;1.25;;;;;;;;;;5011368;28;20029;-83
2021/08/24 12:14:24;;;;;;;5.03;1.50;;;;;;;;;;5015898;28;20025;-84
2021/08/24 12:16:57;;;;;;;2.45;1.50;;;;;;;;;;5024779;28;20026;-85
2021/08/24 12:19:23;;;;;;;2.53;1.48;;;;;;;;;;5024644;28;20033;-84
2021/08/24 12:21:48;;;;;;;6.38;1.48;;;;;;;;;;5006791;28;20367;-85
2021/08/24 12:24:22;;;;;;;2.13;1.02;;;;;;;;;;5026421;28;20037;-84
2021/08/24 12:26:48;;;;;;;3.20;1.55;;;;;;;;;;5058519;28;20029;-84
2021/08/24 12:29:32;;;;;;;3.25;1.30;;;;;;;;;;5015767;28;20088;-84
2021/08/24 12:31:58;;;;;;;3.60;1.70;;;;;;;;;;5010981;28;20021;-84
2021/08/24 12:34:32;;;;;;;3.42;1.60;;;;;;;;;;5015654;28;20021;-84
2021/08/24 12:36:58;;;;;;;7.95;1.50;;;;;;;;;;5014707;28;20460;-85
2021/08/24 12:39:37;;;;;;;4.78;1.63;;;;;;;;;;5014762;28;20025;-85
2021/08/24 12:42:14;;;;;;;5.22;1.60;;;;;;;;;;5043580;28;20022;-85
2021/08/24 12:44:45;;;;;;;3.65;1.80;;;;;;;;;;5019399;28;20033;-84
2021/08/24 12:47:30;;;;;;;2.03;1.30;;;;;;;;;;5023268;28;20385;-84
2021/08/24 12:49:56;;;;;;;5.97;1.45;;;;;;;;;;5046589;28;20354;-85
2021/08/24 12:52:27;;;;;;;6.10;1.20;;;;;;;;;;5046783;28;20363;-85
2021/08/24 12:54:55;;;;;;;6.45;1.40;;;;;;;;;;5013783;28;20018;-85
2021/08/24 12:57:23;;;;;;;3.03;1.30;;;;;;;;;;5013029;28;20441;-85
2021/08/24 12:59:50;;;;;;;3.20;1.48;;;;;;;;;;5045628;28;20091;-85
2021/08/24 13:02:38;;;;;;;4.35;1.70;;;;;;;;;;5016636;28;20018;-84
2021/08/24 13:05:03;;;;;;;4.97;1.90;;;;;;;;;;5016755;28;20489;-83
2021/08/24 13:07:35;;;;;;;3.15;1.60;;;;;;;;;;5038410;28;20030;-84
2021/08/24 13:10:08;;;;;;;5.75;1.50;;;;;;;;;;5040207;28;20021;-85
2021/08/24 13:12:40;;;;;;;4.05;1.70;;;;;;;;;;5012450;28;20492;-84
2021/08/24 13:15:05;;;;;;;;;;;;;;;;;;5013615;28;20379;-84
2021/08/24 13:17:47;;;;;;;4.07;1.75;;;;;;;;;;5046272;28;20328;-84
2021/08/24 13:20:21;;;;;;;4.28;1.85;;;;;;;;;;5027522;28;20033;-84
2021/08/24 13:22:46;;;;;;;4.30;1.60;;;;;;;;;;5012915;28;20026;-84
2021/08/24 13:25:13;;;;;;;3.45;1.80;;;;;;;;;;5045525;28;20048;-85
2021/08/24 13:27:43;;;;;;;3.35;1.65;;;;;;;;;;5014192;28;20068;-84
2021/08/24 13:30:10;;;;;;;5.70;1.50;;;;;;;;;;5013339;28;20359;-84
2021/08/24 13:32:39;;;;;;;2.95;1.50;;;;;;;;;;5012780;28;20021;-84
2021/08/24 13:35:12;;;;;;;2.88;1.70;;;;;;;;;;5012752;28;20482;-84
2021/08/24 13:37:39;;;;;;;4.82;1.83;;;;;;;;;;5012488;28;20056;-83
2021/08/24 13:40:10;;;;;;;3.00;1.75;;;;;;;;;;5013025;28;20061;-84
2021/08/24 13:42:38;;;;;;;6.22;1.63;;;;;;;;;;5013118;28;20026;-84
2021/08/24 13:45:04;;;;;;;4.75;1.83;;;;;;;;;;5013064;28;20470;-84
2021/08/24 13:47:29;;;;;;;5.45;1.70;;;;;;;;;;5011899;28;20018;-84
2021/08/24 13:49:58;;;;;;;4.40;1.70;;;;;;;;;;5013149;28;20230;-84
2021/08/24 13:52:35;;;;;;;6.60;1.75;;;;;;;;;;5011867;28;20025;-84
2021/08/24 13:55:00;;;;;;;2.85;1.38;;;;;;;;;;5045215;28;20010;-84
2021/08/24 13:57:27;;;;;;;5.82;1.60;;;;;;;;;;5045275;28;20025;-84
2021/08/24 14:00:01;;;;;;;3.22;1.80;;;;;;;;;;5013627;28;20067;-84
2021/08/24 14:02:29;;;;;;;3.67;1.50;;;;;;;;;;5011491;28;20481;-83
2021/08/24 14:04:54;;;;;;;5.75;2.10;;;;;;;;;;5016983;28;20060;-84
2021/08/24 14:07:31;;;;;;;3.13;1.50;;;;;;;;;;5013429;28;20109;-83
2021/08/24 14:10:03;;;;;;;4.32;1.70;;;;;;;;;;5012638;28;20028;-83
2021/08/24 14:12:37;;;;;;;6.78;1.67;;;;;;;;;;5013402;28;20460;-83
2021/08/24 14:15:11;;;;;;;8.00;1.35;;;;;;;;;;5013652;28;20362;-84
2021/08/24 14:17:45;;;;;;;3.03;1.80;;;;;;;;;;5013266;28;20036;-84
2021/08/24 14:20:15;;;;;;;3.83;1.52;;;;;;;;;;5012529;28;20112;-84
2021/08/24 14:22:41;;;;;;;6.50;1.65;;;;;;;;;;5012999;28;20025;-84
2021/08/24 14:25:06;;;;;;;3.67;1.90;;;;;;;;;;5011851;28;20013;-84
2021/08/24 14:27:32;;;;;;;3.53;1.40;;;;;;;;;;5013543;28;20034;-84
2021/08/24 14:29:57;;;;;;;3.15;1.60;;;;;;;;;;5006506;28;20471;-83
2021/08/24 14:32:36;;;;;;;2.35;1.40;;;;;;;;;;5012885;28;20075;-84
2021/08/24 14:35:02;;;;;;;3.05;1.55;;;;;;;;;;5019348;28;20358;-84
2021/08/24 14:37:32;;;;;;;8.30;1.70;;;;;;;;;;5010139;28;20104;-84
2021/08/24 14:40:01;;;;;;;4.32;1.90;;;;;;;;;;5011776;28;20532;-84
2021/08/24 14:42:47;;;;;;;5.03;1.45;;;;;;;;;;5012998;28;20026;-84
2021/08/24 14:45:24;;;;;;;3.05;1.55;;;;;;;;;;4999098;28;20113;-84
2021/08/24 14:47:55;;;;;;;7.07;1.80;;;;;;;;;;5014148;28;20030;-84
2021/08/24 14:50:41;;;;;;;2.92;1.50;;;;;;;;;;5012861;28;20025;-84
2021/08/24 14:53:08;;;;;;;2.95;1.50;;;;;;;;;;5011824;28;20481;-85